createdAt,value
2023-01-01T00:00:24.712Z,89.29
2023-01-01T00:01:28.893Z,88.62
2023-01-01T00:02:37.000Z,88.11
2023-01-01T00:03:40.874Z,88.62
2023-01-01T00:04:50.491Z,89.77
2023-01-01T00:05:57.356Z,90.44
2023-01-01T00:07:03.066Z,88.50
2023-01-01T00:08:07.310Z,86.55
2023-01-01T00:09:30.587Z,88.07
2023-01-01T00:10:34.239Z,88.50
2023-01-01T00:11:37.114Z,88.83
2023-01-01T00:12:39.475Z,88.17
2023-01-01T00:13:42.185Z,87.46
2023-01-01T00:14:44.711Z,87.51
2023-01-01T00:15:50.849Z,87.63
2023-01-01T00:16:56.211Z,87.32
2023-01-01T00:17:58.921Z,87.74
2023-01-01T00:19:01.969Z,88.14
2023-01-01T00:20:08.516Z,87.71
2023-01-01T00:21:14.486Z,87.49
2023-01-01T00:23:23.697Z,88.35
2023-01-01T00:24:26.180Z,87.94
2023-01-01T00:25:28.642Z,88.66
2023-01-01T00:26:35.272Z,88.81
2023-01-01T00:27:40.131Z,89.04
2023-01-01T00:28:45.482Z,89.23
2023-01-01T00:29:49.229Z,89.45
2023-01-01T00:30:53.628Z,88.97
2023-01-01T00:31:58.879Z,88.32
2023-01-01T00:33:04.232Z,89.70
2023-01-01T00:34:10.536Z,88.50
2023-01-01T00:35:13.426Z,88.17
2023-01-01T00:36:17.888Z,88.43
2023-01-01T00:37:22.744Z,88.74
2023-01-01T00:38:26.256Z,89.13
2023-01-01T00:39:32.769Z,89.25
2023-01-01T00:40:36.262Z,88.85
2023-01-01T00:41:40.718Z,88.98
2023-01-01T00:42:45.251Z,90.12
2023-01-01T00:43:49.049Z,88.71
2023-01-01T00:44:56.182Z,88.33
2023-01-01T00:46:01.717Z,88.25
2023-01-01T00:47:12.024Z,88.24
2023-01-01T00:48:15.197Z,88.45
2023-01-01T00:49:20.509Z,89.70
2023-01-01T00:50:25.442Z,90.12
2023-01-01T00:51:36.925Z,90.16
2023-01-01T00:52:39.170Z,89.18
2023-01-01T00:53:45.231Z,89.79
2023-01-01T00:54:48.337Z,88.96
2023-01-01T00:55:52.150Z,88.41
2023-01-01T00:56:57.621Z,88.66
2023-01-01T00:58:05.063Z,88.92
2023-01-01T00:59:13.651Z,89.14
2023-01-01T01:00:18.515Z,89.37
2023-01-01T01:01:23.257Z,89.42
2023-01-01T01:02:28.102Z,89.37
2023-01-01T01:03:32.522Z,90.27
2023-01-01T01:04:36.132Z,89.58
2023-01-01T01:05:42.979Z,89.36
2023-01-01T01:06:50.195Z,89.67
2023-01-01T01:07:55.182Z,90.51
2023-01-01T01:09:04.056Z,89.14
2023-01-01T01:10:12.059Z,89.13
2023-01-01T01:11:19.189Z,89.55
2023-01-01T01:12:25.993Z,90.29
2023-01-01T01:13:29.300Z,89.47
2023-01-01T01:14:33.012Z,90.22
2023-01-01T01:15:35.567Z,89.12
2023-01-01T01:16:38.152Z,88.61
2023-01-01T01:17:41.784Z,89.32
2023-01-01T01:18:46.326Z,88.58
2023-01-01T01:19:49.816Z,88.31
2023-01-01T01:20:54.437Z,89.64
2023-01-01T01:21:58.283Z,89.49
2023-01-01T01:23:02.305Z,89.66
2023-01-01T01:24:06.418Z,88.69
2023-01-01T01:25:10.291Z,88.98
2023-01-01T01:26:17.497Z,88.57
2023-01-01T01:27:21.210Z,88.05
2023-01-01T01:28:23.744Z,88.25
2023-01-01T01:29:27.925Z,88.64
2023-01-01T01:30:31.843Z,90.07
2023-01-01T01:31:34.934Z,89.19
2023-01-01T01:32:40.374Z,89.13
2023-01-01T01:33:44.470Z,89.76
2023-01-01T01:34:47.533Z,89.64
2023-01-01T01:35:52.077Z,89.61
2023-01-01T01:36:55.881Z,89.22
2023-01-01T01:38:02.478Z,89.10
2023-01-01T01:39:05.093Z,89.42
2023-01-01T01:40:11.717Z,89.25
2023-01-01T01:41:27.265Z,89.33
2023-01-01T01:42:24.712Z,89.62
2023-01-01T01:43:39.940Z,89.60
2023-01-01T01:44:52.873Z,89.79
2023-01-01T01:45:58.911Z,89.36
2023-01-01T01:47:03.110Z,89.85
2023-01-01T01:48:07.889Z,90.08
2023-01-01T01:49:14.253Z,89.67
2023-01-01T01:50:22.353Z,90.23
2023-01-01T01:51:29.764Z,89.58
2023-01-01T01:52:36.227Z,89.11
2023-01-01T01:53:55.155Z,89.47
2023-01-01T01:55:00.661Z,89.68
2023-01-01T01:56:09.139Z,89.97
2023-01-01T01:57:13.359Z,90.23
2023-01-01T01:58:16.795Z,89.07
2023-01-01T01:59:22.374Z,89.67
2023-01-01T02:00:25.241Z,89.67
2023-01-01T02:01:28.384Z,88.92
2023-01-01T02:02:42.280Z,88.99
2023-01-01T02:03:54.472Z,88.97
2023-01-01T02:04:57.859Z,89.07
2023-01-01T02:06:02.081Z,88.60
2023-01-01T02:07:05.177Z,88.83
2023-01-01T02:08:15.408Z,88.88
2023-01-01T02:09:18.509Z,88.85
2023-01-01T02:10:21.918Z,88.89
2023-01-01T02:11:24.987Z,88.95
2023-01-01T02:12:28.123Z,89.21
2023-01-01T02:13:30.877Z,89.77
2023-01-01T02:14:33.259Z,89.59
2023-01-01T02:15:54.681Z,89.72
2023-01-01T02:18:18.792Z,90.01
2023-01-01T02:19:43.264Z,89.90
2023-01-01T02:21:00.390Z,89.88
2023-01-01T02:22:27.180Z,90.14
2023-01-01T02:23:42.388Z,90.60
2023-01-01T02:25:19.256Z,90.22
2023-01-01T02:26:41.785Z,89.73
2023-01-01T02:27:47.562Z,89.87
2023-01-01T02:29:09.746Z,89.93
2023-01-01T02:30:14.265Z,90.06
2023-01-01T02:31:23.312Z,89.80
2023-01-01T02:32:28.928Z,89.66
2023-01-01T02:33:32.476Z,89.46
2023-01-01T02:34:38.200Z,89.66
2023-01-01T02:35:47.240Z,89.63
2023-01-01T02:36:53.666Z,89.48
2023-01-01T02:37:59.506Z,89.42
2023-01-01T02:39:05.425Z,90.12
2023-01-01T02:40:09.062Z,89.72
2023-01-01T02:41:18.636Z,90.02
2023-01-01T02:42:25.882Z,89.60
2023-01-01T02:43:29.957Z,89.74
2023-01-01T02:44:38.529Z,89.50
2023-01-01T02:45:40.880Z,89.33
2023-01-01T02:46:46.938Z,89.41
2023-01-01T02:47:51.379Z,89.41
2023-01-01T02:48:53.432Z,89.30
2023-01-01T02:50:14.141Z,89.33
2023-01-01T02:51:46.358Z,89.24
2023-01-01T02:53:07.646Z,89.49
2023-01-01T02:54:40.577Z,89.58
2023-01-01T02:55:49.313Z,89.71
2023-01-01T02:56:58.233Z,89.67
2023-01-01T02:58:48.637Z,89.76
2023-01-01T03:00:16.434Z,89.86
2023-01-01T03:01:34.754Z,89.93
2023-01-01T03:03:02.579Z,89.51
2023-01-01T03:04:12.904Z,89.39
2023-01-01T03:05:22.420Z,89.38
2023-01-01T03:07:51.416Z,89.53
2023-01-01T03:09:17.188Z,89.56
2023-01-01T03:10:22.974Z,89.52
2023-01-01T03:11:28.682Z,89.47
2023-01-01T03:12:42.664Z,89.44
2023-01-01T03:14:04.907Z,89.35
2023-01-01T03:16:45.597Z,89.17
2023-01-01T03:17:56.823Z,89.17
2023-01-01T03:19:11.855Z,89.14
2023-01-01T03:20:21.993Z,89.07
2023-01-01T03:21:24.345Z,88.89
2023-01-01T03:22:30.650Z,88.86
2023-01-01T03:23:36.625Z,88.85
2023-01-01T03:24:54.114Z,88.76
2023-01-01T03:25:59.990Z,88.80
2023-01-01T03:27:05.791Z,88.76
2023-01-01T03:28:14.516Z,88.79
2023-01-01T03:29:18.793Z,88.76
2023-01-01T03:30:21.639Z,88.71
2023-01-01T03:31:26.159Z,88.65
2023-01-01T03:32:53.532Z,88.45
2023-01-01T03:34:02.364Z,88.40
2023-01-01T03:35:05.339Z,88.39
2023-01-01T03:36:14.734Z,88.37
2023-01-01T03:37:20.544Z,88.44
2023-01-01T03:38:26.842Z,88.33
2023-01-01T03:39:32.565Z,88.33
2023-01-01T03:40:38.268Z,88.25
2023-01-01T03:41:46.016Z,88.19
2023-01-01T03:42:51.846Z,88.11
2023-01-01T03:44:03.703Z,88.02
2023-01-01T03:45:12.180Z,87.95
2023-01-01T03:46:18.622Z,87.88
2023-01-01T03:47:20.832Z,87.84
2023-01-01T03:48:24.214Z,87.78
2023-01-01T03:49:27.628Z,87.79
2023-01-01T03:50:50.618Z,87.74
2023-01-01T03:52:22.464Z,87.73
2023-01-01T03:53:34.003Z,87.71
2023-01-01T03:54:42.657Z,87.66
2023-01-01T03:55:48.459Z,87.54
2023-01-01T03:57:00.900Z,87.52
2023-01-01T03:58:21.748Z,87.58
2023-01-01T03:59:40.017Z,87.47
2023-01-01T04:00:57.979Z,87.43
2023-01-01T04:02:04.280Z,87.45
2023-01-01T04:03:10.159Z,87.52
2023-01-01T04:04:14.792Z,87.54
2023-01-01T04:05:19.533Z,87.47
2023-01-01T04:06:22.545Z,87.40
2023-01-01T04:07:25.318Z,87.37
2023-01-01T04:08:27.670Z,87.25
2023-01-01T04:09:34.772Z,87.30
2023-01-01T04:10:41.038Z,87.22
2023-01-01T04:12:03.731Z,87.19
2023-01-01T04:13:06.509Z,87.16
2023-01-01T04:14:09.259Z,87.09
2023-01-01T04:15:11.806Z,87.05
2023-01-01T04:16:15.806Z,86.96
2023-01-01T04:17:17.996Z,86.92
2023-01-01T04:18:20.110Z,86.88
2023-01-01T04:19:22.214Z,86.82
2023-01-01T04:20:25.343Z,86.79
2023-01-01T04:21:27.775Z,86.72
2023-01-01T04:22:31.260Z,86.66
2023-01-01T04:23:33.462Z,86.68
2023-01-01T04:24:35.582Z,86.68
2023-01-01T04:25:37.616Z,86.70
2023-01-01T04:26:41.451Z,86.67
2023-01-01T04:27:44.105Z,86.66
2023-01-01T04:28:46.042Z,86.66
2023-01-01T04:29:48.096Z,86.37
2023-01-01T04:30:50.307Z,86.34
2023-01-01T04:31:52.268Z,86.39
2023-01-01T04:32:55.088Z,86.40
2023-01-01T04:33:57.270Z,86.38
2023-01-01T04:35:00.115Z,86.29
2023-01-01T04:36:07.123Z,86.34
2023-01-01T04:37:13.084Z,86.30
2023-01-01T04:38:14.047Z,86.19
2023-01-01T04:39:16.084Z,86.11
2023-01-01T04:40:19.363Z,86.11
2023-01-01T04:41:21.981Z,86.10
2023-01-01T04:42:24.091Z,86.12
2023-01-01T04:43:26.311Z,86.11
2023-01-01T04:44:28.418Z,86.17
2023-01-01T04:45:30.655Z,86.07
2023-01-01T04:46:33.079Z,85.95
2023-01-01T04:47:35.216Z,85.89
2023-01-01T04:48:37.916Z,85.80
2023-01-01T04:49:40.667Z,85.79
2023-01-01T04:50:43.029Z,85.87
2023-01-01T04:51:45.185Z,85.94
2023-01-01T04:52:49.200Z,85.98
2023-01-01T04:53:51.382Z,86.00
2023-01-01T04:54:53.267Z,86.02
2023-01-01T04:55:55.685Z,86.01
2023-01-01T04:56:57.874Z,85.83
2023-01-01T04:57:59.890Z,85.92
2023-01-01T04:59:02.311Z,85.98
2023-01-01T05:00:05.408Z,85.98
2023-01-01T05:01:08.847Z,85.99
2023-01-01T05:02:11.673Z,85.96
2023-01-01T05:03:14.000Z,85.86
2023-01-01T05:04:16.742Z,85.86
2023-01-01T05:05:18.755Z,85.91
2023-01-01T05:06:23.519Z,85.66
2023-01-01T05:07:25.789Z,85.59
2023-01-01T05:08:30.079Z,85.48
2023-01-01T05:09:32.577Z,85.49
2023-01-01T05:10:34.862Z,85.60
2023-01-01T05:11:37.343Z,85.74
2023-01-01T05:12:39.331Z,85.83
2023-01-01T05:13:44.550Z,85.79
2023-01-01T05:14:46.611Z,85.67
2023-01-01T05:15:48.439Z,85.66
2023-01-01T05:16:53.055Z,85.66
2023-01-01T05:17:55.261Z,85.65
2023-01-01T05:18:57.682Z,85.77
2023-01-01T05:19:59.770Z,85.76
2023-01-01T05:21:03.999Z,85.75
2023-01-01T05:22:10.836Z,85.68
2023-01-01T05:23:11.686Z,85.64
2023-01-01T05:24:13.897Z,85.64
2023-01-01T05:25:16.017Z,85.68
2023-01-01T05:26:20.419Z,85.80
2023-01-01T05:27:22.471Z,85.76
2023-01-01T05:28:25.203Z,85.75
2023-01-01T05:29:28.694Z,85.82
2023-01-01T05:30:31.897Z,85.88
2023-01-01T05:31:36.232Z,85.95
2023-01-01T05:32:38.467Z,85.90
2023-01-01T05:33:41.179Z,85.90
2023-01-01T05:34:43.380Z,85.98
2023-01-01T05:35:45.730Z,86.05
2023-01-01T05:36:48.131Z,86.13
2023-01-01T05:37:51.352Z,86.25
2023-01-01T05:38:54.521Z,86.36
2023-01-01T05:39:56.799Z,86.45
2023-01-01T05:40:59.115Z,86.60
2023-01-01T05:42:03.188Z,86.80
2023-01-01T05:43:07.187Z,86.75
2023-01-01T05:44:11.122Z,86.71
2023-01-01T05:45:13.469Z,86.72
2023-01-01T05:46:21.035Z,86.80
2023-01-01T05:47:23.284Z,86.88
2023-01-01T05:48:25.414Z,87.05
2023-01-01T05:49:28.343Z,87.08
2023-01-01T05:50:31.244Z,87.24
2023-01-01T05:52:34.841Z,87.22
2023-01-01T05:53:37.628Z,87.33
2023-01-01T05:54:39.718Z,87.37
2023-01-01T05:55:41.761Z,87.39
2023-01-01T05:56:43.983Z,87.48
2023-01-01T05:57:46.187Z,87.49
2023-01-01T05:58:49.938Z,87.58
2023-01-01T05:59:52.503Z,87.60
2023-01-01T06:00:55.086Z,87.61
2023-01-01T06:01:57.512Z,87.65
2023-01-01T06:02:59.766Z,87.66
2023-01-01T06:04:01.901Z,87.68
2023-01-01T06:05:04.561Z,87.70
2023-01-01T06:06:13.998Z,87.66
2023-01-01T06:07:16.046Z,87.70
2023-01-01T06:08:22.724Z,87.75
2023-01-01T06:09:25.941Z,87.86
2023-01-01T06:10:29.351Z,87.81
2023-01-01T06:11:32.054Z,87.83
2023-01-01T06:12:34.634Z,87.67
2023-01-01T06:13:37.380Z,87.67
2023-01-01T06:14:39.505Z,87.79
2023-01-01T06:15:41.650Z,87.97
2023-01-01T06:16:44.524Z,87.95
2023-01-01T06:17:46.608Z,87.94
2023-01-01T06:18:49.507Z,88.04
2023-01-01T06:19:51.644Z,88.05
2023-01-01T06:20:54.982Z,88.13
2023-01-01T06:21:57.695Z,88.00
2023-01-01T06:22:59.611Z,87.81
2023-01-01T06:24:01.813Z,87.80
2023-01-01T06:25:04.347Z,87.76
2023-01-01T06:26:22.041Z,87.80
2023-01-01T06:27:24.245Z,87.78
2023-01-01T06:28:26.158Z,87.75
2023-01-01T06:29:29.034Z,87.81
2023-01-01T06:30:33.052Z,87.86
2023-01-01T06:31:40.402Z,87.82
2023-01-01T06:32:39.191Z,87.76
2023-01-01T06:33:42.114Z,87.82
2023-01-01T06:34:44.276Z,87.81
2023-01-01T06:35:46.946Z,87.79
2023-01-01T06:36:49.149Z,87.83
2023-01-01T06:37:51.385Z,87.84
2023-01-01T06:38:56.252Z,87.90
2023-01-01T06:39:58.311Z,87.90
2023-01-01T06:41:06.663Z,87.85
2023-01-01T06:42:08.921Z,87.83
2023-01-01T06:43:12.086Z,87.86
2023-01-01T06:44:14.132Z,87.75
2023-01-01T06:45:17.361Z,87.65
2023-01-01T06:46:26.380Z,87.69
2023-01-01T06:47:28.505Z,87.71
2023-01-01T06:48:33.050Z,87.71
2023-01-01T06:49:35.145Z,87.72
2023-01-01T06:50:37.275Z,87.81
2023-01-01T06:51:42.395Z,87.79
2023-01-01T06:52:46.934Z,87.67
2023-01-01T06:53:50.511Z,87.63
2023-01-01T06:54:53.207Z,87.63
2023-01-01T06:55:57.497Z,87.63
2023-01-01T06:57:00.589Z,87.62
2023-01-01T06:58:02.755Z,87.61
2023-01-01T06:59:05.378Z,87.47
2023-01-01T07:00:08.943Z,87.45
2023-01-01T07:01:17.523Z,87.45
2023-01-01T07:02:20.196Z,87.47
2023-01-01T07:03:22.408Z,87.41
2023-01-01T07:04:24.558Z,87.41
2023-01-01T07:05:26.682Z,87.39
2023-01-01T07:06:31.395Z,87.39
2023-01-01T07:07:35.971Z,87.40
2023-01-01T07:08:38.411Z,87.36
2023-01-01T07:09:40.989Z,87.38
2023-01-01T07:10:43.181Z,87.41
2023-01-01T07:11:45.341Z,87.44
2023-01-01T07:12:47.326Z,87.51
2023-01-01T07:13:49.363Z,87.52
2023-01-01T07:14:51.397Z,87.45
2023-01-01T07:15:54.394Z,87.32
2023-01-01T07:16:57.315Z,87.28
2023-01-01T07:18:01.690Z,87.19
2023-01-01T07:19:03.812Z,87.11
2023-01-01T07:20:07.842Z,87.01
2023-01-01T07:21:31.821Z,87.02
2023-01-01T07:22:36.731Z,87.05
2023-01-01T07:23:39.815Z,86.94
2023-01-01T07:24:41.859Z,86.93
2023-01-01T07:25:44.285Z,86.84
2023-01-01T07:26:48.487Z,86.95
2023-01-01T07:27:50.729Z,86.87
2023-01-01T07:28:53.894Z,86.86
2023-01-01T07:29:56.136Z,86.87
2023-01-01T07:31:00.048Z,86.84
2023-01-01T07:32:03.381Z,86.83
2023-01-01T07:33:05.562Z,86.76
2023-01-01T07:34:11.275Z,86.71
2023-01-01T07:35:13.815Z,86.58
2023-01-01T07:36:18.361Z,86.49
2023-01-01T07:37:23.260Z,86.36
2023-01-01T07:38:26.034Z,86.34
2023-01-01T07:39:28.170Z,86.26
2023-01-01T07:40:30.919Z,86.21
2023-01-01T07:41:33.935Z,86.13
2023-01-01T07:42:35.984Z,86.21
2023-01-01T07:43:38.308Z,86.11
2023-01-01T07:44:40.419Z,85.99
2023-01-01T07:45:42.555Z,85.92
2023-01-01T07:46:45.535Z,85.90
2023-01-01T07:47:50.812Z,85.85
2023-01-01T07:48:54.715Z,85.85
2023-01-01T07:49:56.711Z,85.67
2023-01-01T07:50:58.831Z,85.65
2023-01-01T07:52:00.900Z,85.54
2023-01-01T07:53:04.615Z,85.47
2023-01-01T07:54:07.731Z,85.45
2023-01-01T07:55:14.307Z,85.40
2023-01-01T07:56:17.252Z,85.34
2023-01-01T07:57:19.145Z,85.19
2023-01-01T07:58:22.738Z,85.19
2023-01-01T07:59:25.436Z,85.08
2023-01-01T08:00:28.125Z,85.11
2023-01-01T08:01:30.609Z,84.98
2023-01-01T08:02:32.965Z,84.92
2023-01-01T08:03:35.510Z,84.85
2023-01-01T08:04:37.795Z,84.88
2023-01-01T08:05:40.831Z,84.81
2023-01-01T08:06:43.678Z,84.63
2023-01-01T08:07:48.304Z,84.54
2023-01-01T08:08:50.431Z,84.45
2023-01-01T08:09:53.340Z,84.38
2023-01-01T08:11:03.822Z,84.36
2023-01-01T08:12:06.638Z,84.22
2023-01-01T08:13:09.300Z,84.14
2023-01-01T08:14:12.189Z,84.04
2023-01-01T08:15:15.638Z,84.01
2023-01-01T08:16:19.918Z,84.05
2023-01-01T08:17:21.968Z,83.89
2023-01-01T08:18:24.770Z,83.77
2023-01-01T08:19:28.166Z,83.73
2023-01-01T08:20:31.988Z,83.56
2023-01-01T08:21:36.037Z,83.45
2023-01-01T08:22:38.247Z,83.42
2023-01-01T08:23:40.265Z,83.45
2023-01-01T08:24:42.698Z,83.37
2023-01-01T08:25:48.343Z,83.29
2023-01-01T08:26:50.533Z,83.17
2023-01-01T08:27:52.903Z,83.12
2023-01-01T08:28:57.315Z,83.04
2023-01-01T08:29:58.971Z,82.80
2023-01-01T08:31:03.659Z,82.64
2023-01-01T08:32:05.974Z,82.42
2023-01-01T08:33:08.426Z,82.31
2023-01-01T08:34:10.450Z,82.23
2023-01-01T08:35:12.521Z,82.21
2023-01-01T08:36:15.871Z,82.08
2023-01-01T08:37:20.346Z,81.99
2023-01-01T08:38:22.719Z,81.86
2023-01-01T08:39:25.144Z,81.70
2023-01-01T08:40:27.568Z,81.52
2023-01-01T08:41:30.207Z,81.51
2023-01-01T08:42:32.629Z,81.36
2023-01-01T08:43:35.343Z,81.22
2023-01-01T08:44:39.029Z,81.00
2023-01-01T08:45:41.336Z,80.93
2023-01-01T08:46:43.798Z,80.79
2023-01-01T08:47:47.070Z,80.73
2023-01-01T08:48:49.359Z,80.94
2023-01-01T08:49:52.586Z,80.67
2023-01-01T08:50:57.455Z,81.04
2023-01-01T08:52:00.234Z,81.04
2023-01-01T08:53:03.326Z,79.96
2023-01-01T08:54:05.910Z,79.80
2023-01-01T08:55:10.262Z,80.95
2023-01-01T08:56:15.495Z,79.51
2023-01-01T08:57:18.047Z,79.07
2023-01-01T08:58:20.965Z,79.07
2023-01-01T08:59:23.501Z,79.10
2023-01-01T09:00:26.875Z,79.22
2023-01-01T09:01:29.477Z,79.10
2023-01-01T09:02:50.351Z,78.86
2023-01-01T09:03:52.533Z,78.94
2023-01-01T09:04:54.965Z,78.79
2023-01-01T09:05:57.297Z,79.09
2023-01-01T09:07:00.580Z,78.52
2023-01-01T09:08:03.246Z,78.37
2023-01-01T09:09:05.413Z,78.54
2023-01-01T09:10:08.918Z,78.54
2023-01-01T09:11:29.183Z,78.44
2023-01-01T09:12:31.845Z,78.23
2023-01-01T09:13:36.779Z,78.38
2023-01-01T09:14:39.077Z,78.28
2023-01-01T09:15:44.622Z,78.02
2023-01-01T09:16:47.897Z,77.84
2023-01-01T09:17:50.375Z,78.04
2023-01-01T09:18:52.809Z,77.71
2023-01-01T09:19:56.074Z,77.74
2023-01-01T09:20:58.185Z,77.28
2023-01-01T09:22:00.181Z,77.64
2023-01-01T09:23:05.976Z,77.22
2023-01-01T09:24:08.255Z,77.26
2023-01-01T09:25:10.586Z,76.68
2023-01-01T09:26:13.358Z,76.58
2023-01-01T09:27:15.611Z,76.61
2023-01-01T09:28:25.610Z,76.42
2023-01-01T09:29:25.460Z,76.46
2023-01-01T09:30:29.535Z,76.73
2023-01-01T09:31:31.854Z,76.33
2023-01-01T09:32:34.027Z,76.57
2023-01-01T09:33:36.221Z,76.09
2023-01-01T09:34:38.419Z,75.80
2023-01-01T09:35:42.321Z,75.75
2023-01-01T09:36:46.328Z,75.37
2023-01-01T09:37:49.113Z,75.31
2023-01-01T09:38:52.289Z,75.15
2023-01-01T09:39:54.339Z,75.19
2023-01-01T09:41:03.911Z,74.94
2023-01-01T09:42:18.742Z,75.08
2023-01-01T09:43:40.483Z,75.00
2023-01-01T09:45:01.843Z,74.75
2023-01-01T09:46:07.774Z,74.69
2023-01-01T09:47:31.672Z,74.78
2023-01-01T09:48:40.981Z,74.58
2023-01-01T09:49:46.930Z,74.40
2023-01-01T09:50:49.540Z,74.35
2023-01-01T09:51:58.130Z,74.72
2023-01-01T09:53:03.383Z,74.31
2023-01-01T09:54:12.258Z,74.45
2023-01-01T09:55:44.327Z,74.36
2023-01-01T09:56:50.812Z,74.21
2023-01-01T09:57:55.682Z,74.09
2023-01-01T09:58:59.429Z,74.20
2023-01-01T10:00:02.408Z,74.20
2023-01-01T10:01:27.378Z,74.24
2023-01-01T10:02:36.624Z,73.98
2023-01-01T10:04:14.746Z,74.08
2023-01-01T10:05:44.212Z,74.06
2023-01-01T10:06:53.120Z,74.06
2023-01-01T10:08:10.836Z,74.03
2023-01-01T10:09:34.967Z,73.95
2023-01-01T10:10:43.033Z,74.00
2023-01-01T10:12:05.588Z,73.94
2023-01-01T10:13:26.770Z,74.22
2023-01-01T10:14:36.820Z,74.13
2023-01-01T10:15:42.936Z,74.50
2023-01-01T10:16:49.224Z,73.87
2023-01-01T10:17:55.038Z,73.09
2023-01-01T10:19:01.024Z,72.92
2023-01-01T10:20:27.391Z,73.10
2023-01-01T10:21:40.699Z,73.21
2023-01-01T10:22:45.072Z,72.85
2023-01-01T10:23:57.131Z,73.00
2023-01-01T10:25:04.468Z,72.86
2023-01-01T10:26:11.125Z,72.89
2023-01-01T10:28:31.420Z,73.03
2023-01-01T10:30:59.248Z,73.03
2023-01-01T10:32:20.114Z,73.24
2023-01-01T10:33:22.667Z,73.22
2023-01-01T10:34:28.166Z,73.11
2023-01-01T10:35:49.724Z,73.66
2023-01-01T10:36:56.306Z,73.24
2023-01-01T10:38:06.748Z,73.05
2023-01-01T10:39:17.574Z,73.20
2023-01-01T10:40:22.898Z,73.17
2023-01-01T10:41:25.252Z,72.99
2023-01-01T10:42:28.453Z,73.02
2023-01-01T10:43:31.765Z,73.02
2023-01-01T10:44:35.670Z,72.82
2023-01-01T10:45:41.819Z,72.70
2023-01-01T10:46:47.830Z,72.74
2023-01-01T10:48:14.364Z,72.56
2023-01-01T10:49:19.069Z,72.55
2023-01-01T10:50:22.409Z,74.36
2023-01-01T10:51:26.281Z,71.82
2023-01-01T10:52:37.950Z,71.95
2023-01-01T10:53:55.214Z,71.83
2023-01-01T10:54:59.846Z,71.92
2023-01-01T10:56:06.364Z,72.33
2023-01-01T10:57:30.338Z,72.28
2023-01-01T10:58:41.059Z,72.31
2023-01-01T10:59:48.303Z,72.24
2023-01-01T11:00:53.180Z,72.57
2023-01-01T11:02:17.458Z,72.76
2023-01-01T11:03:22.094Z,73.57
2023-01-01T11:04:25.041Z,72.41
2023-01-01T11:05:28.333Z,72.53
2023-01-01T11:06:37.687Z,72.70
2023-01-01T11:07:42.653Z,72.73
2023-01-01T11:08:52.106Z,74.17
2023-01-01T11:10:04.775Z,72.83
2023-01-01T11:11:05.167Z,73.00
2023-01-01T11:12:30.613Z,73.31
2023-01-01T11:13:24.544Z,72.97
2023-01-01T11:14:29.611Z,72.21
2023-01-01T11:15:41.183Z,72.37
2023-01-01T11:16:46.026Z,72.31
2023-01-01T11:17:50.296Z,73.07
2023-01-01T11:18:55.289Z,72.18
2023-01-01T11:20:02.161Z,72.66
2023-01-01T11:21:05.224Z,72.50
2023-01-01T11:22:11.363Z,72.86
2023-01-01T11:23:29.561Z,72.50
2023-01-01T11:24:35.033Z,72.39
2023-01-01T11:25:37.385Z,72.45
2023-01-01T11:26:39.825Z,72.38
2023-01-01T11:27:42.682Z,72.44
2023-01-01T11:29:07.313Z,72.76
2023-01-01T11:30:22.705Z,72.11
2023-01-01T11:31:38.340Z,72.07
2023-01-01T11:32:41.981Z,71.99
2023-01-01T11:33:50.605Z,71.94
2023-01-01T11:35:02.216Z,71.93
2023-01-01T11:36:07.363Z,71.86
2023-01-01T11:37:13.379Z,71.78
2023-01-01T11:39:31.834Z,71.47
2023-01-01T11:40:41.495Z,71.26
2023-01-01T11:41:49.794Z,71.31
2023-01-01T11:42:58.020Z,71.37
2023-01-01T11:44:00.712Z,71.32
2023-01-01T11:45:19.528Z,71.37
2023-01-01T11:46:25.199Z,71.09
2023-01-01T11:47:39.643Z,70.93
2023-01-01T11:48:44.057Z,70.94
2023-01-01T11:49:49.151Z,70.94
2023-01-01T11:50:57.962Z,71.12
2023-01-01T11:52:01.797Z,70.93
2023-01-01T11:53:25.947Z,70.74
2023-01-01T11:54:33.454Z,70.83
2023-01-01T11:55:51.386Z,70.79
2023-01-01T11:56:57.452Z,70.81
2023-01-01T11:58:20.209Z,70.82
2023-01-01T11:59:30.056Z,70.70
2023-01-01T12:00:36.164Z,70.73
2023-01-01T12:01:48.347Z,70.63
2023-01-01T12:03:00.606Z,70.61
2023-01-01T12:04:14.921Z,70.62
2023-01-01T12:05:27.086Z,70.81
2023-01-01T12:06:37.149Z,70.53
2023-01-01T12:07:42.058Z,70.71
2023-01-01T12:08:47.896Z,70.50
2023-01-01T12:10:15.471Z,70.42
2023-01-01T12:11:33.362Z,70.27
2023-01-01T12:12:41.841Z,70.59
2023-01-01T12:13:47.222Z,70.50
2023-01-01T12:15:24.051Z,70.05
2023-01-01T12:16:36.675Z,70.09
2023-01-01T12:17:45.218Z,69.94
2023-01-01T12:18:57.070Z,69.96
2023-01-01T12:20:14.970Z,69.83
2023-01-01T12:21:25.483Z,69.85
2023-01-01T12:22:28.437Z,70.09
2023-01-01T12:23:35.410Z,69.96
2023-01-01T12:24:38.586Z,70.06
2023-01-01T12:25:44.313Z,70.00
2023-01-01T12:26:53.845Z,69.78
2023-01-01T12:28:02.675Z,69.58
2023-01-01T12:29:27.855Z,69.99
2023-01-01T12:30:46.987Z,69.62
2023-01-01T12:32:05.046Z,69.77
2023-01-01T12:33:29.284Z,70.01
2023-01-01T12:34:55.862Z,69.91
2023-01-01T12:36:05.827Z,70.16
2023-01-01T12:37:40.522Z,69.53
2023-01-01T12:39:11.670Z,69.76
2023-01-01T12:40:36.601Z,69.87
2023-01-01T12:42:09.249Z,70.01
2023-01-01T12:43:25.245Z,70.24
2023-01-01T12:44:50.230Z,70.13
2023-01-01T12:46:14.297Z,70.07
2023-01-01T12:47:35.571Z,69.78
2023-01-01T12:48:59.503Z,69.97
2023-01-01T12:50:25.278Z,70.16
2023-01-01T12:51:48.933Z,70.07
2023-01-01T12:53:07.166Z,70.15
2023-01-01T12:54:13.627Z,70.33
2023-01-01T12:55:39.547Z,70.41
2023-01-01T12:57:03.633Z,70.39
2023-01-01T12:58:16.142Z,70.32
2023-01-01T13:01:45.607Z,70.23
2023-01-01T13:02:54.238Z,70.18
2023-01-01T13:04:05.257Z,70.32
2023-01-01T13:05:11.597Z,70.16
2023-01-01T13:06:21.080Z,70.32
2023-01-01T13:07:35.240Z,70.31
2023-01-01T13:08:39.610Z,70.20
2023-01-01T13:09:48.598Z,70.22
2023-01-01T13:10:58.472Z,70.24
2023-01-01T13:12:13.262Z,70.21
2023-01-01T13:13:16.972Z,70.21
2023-01-01T13:14:19.192Z,70.17
2023-01-01T13:15:43.694Z,70.33
2023-01-01T13:16:49.642Z,70.38
2023-01-01T13:17:53.447Z,70.36
2023-01-01T13:19:00.703Z,70.27
2023-01-01T13:20:03.367Z,70.21
2023-01-01T13:21:18.203Z,70.14
2023-01-01T13:22:30.685Z,70.16
2023-01-01T13:23:37.890Z,70.14
2023-01-01T13:24:41.253Z,70.22
2023-01-01T13:25:43.207Z,70.32
2023-01-01T13:26:46.426Z,70.35
2023-01-01T13:28:04.414Z,70.35
2023-01-01T13:29:17.516Z,70.34
2023-01-01T13:32:02.946Z,70.45
2023-01-01T13:33:26.675Z,70.57
2023-01-01T13:35:01.949Z,70.62
2023-01-01T13:36:19.968Z,70.56
2023-01-01T13:37:26.271Z,70.59
2023-01-01T13:38:48.574Z,70.76
2023-01-01T13:40:02.357Z,70.89
2023-01-01T13:41:06.367Z,70.97
2023-01-01T13:42:12.358Z,70.97
2023-01-01T13:43:23.256Z,70.96
2023-01-01T13:44:26.434Z,70.94
2023-01-01T13:46:11.030Z,70.98
2023-01-01T13:47:11.907Z,71.12
2023-01-01T13:48:56.118Z,71.21
2023-01-01T13:50:11.709Z,71.34
2023-01-01T13:52:03.044Z,71.40
2023-01-01T13:52:43.710Z,71.39
2023-01-01T13:53:54.242Z,71.52
2023-01-01T13:55:01.009Z,71.60
2023-01-01T13:56:28.000Z,71.64
2023-01-01T13:57:43.406Z,71.62
2023-01-01T13:58:55.098Z,71.72
2023-01-01T14:00:16.678Z,71.69
2023-01-01T14:01:29.697Z,71.89
2023-01-01T14:02:57.647Z,71.90
2023-01-01T14:04:01.524Z,71.90
2023-01-01T14:05:16.592Z,72.05
2023-01-01T14:06:32.135Z,71.99
2023-01-01T14:07:55.040Z,71.97
2023-01-01T14:09:12.743Z,72.08
2023-01-01T14:10:28.792Z,72.23
2023-01-01T14:11:31.505Z,72.42
2023-01-01T14:12:37.713Z,72.26
2023-01-01T14:13:41.890Z,72.34
2023-01-01T14:14:47.133Z,72.38
2023-01-01T14:15:58.963Z,72.41
2023-01-01T14:17:05.879Z,72.50
2023-01-01T14:18:14.718Z,72.62
2023-01-01T14:19:17.001Z,72.72
2023-01-01T14:20:25.426Z,72.79
2023-01-01T14:21:31.295Z,72.85
2023-01-01T14:22:33.839Z,72.88
2023-01-01T14:23:45.182Z,72.85
2023-01-01T14:24:47.985Z,72.87
2023-01-01T14:25:50.783Z,72.80
2023-01-01T14:26:56.700Z,72.72
2023-01-01T14:28:00.578Z,72.71
2023-01-01T14:29:07.214Z,72.62
2023-01-01T14:30:18.986Z,72.64
2023-01-01T14:31:24.844Z,72.68
2023-01-01T14:32:32.266Z,72.55
2023-01-01T14:33:35.109Z,72.58
2023-01-01T14:34:37.685Z,72.68
2023-01-01T14:35:43.500Z,72.71
2023-01-01T14:36:54.734Z,72.79
2023-01-01T14:37:59.266Z,72.81
2023-01-01T14:39:01.576Z,72.77
2023-01-01T14:40:18.201Z,72.80